Time;durP1;ratioP1;P1;durP2;ratioP2;P2;SDS_P1;SDS_P2;PMS_P1;PMS_P2;Temp;Humidity;BMP_temperature;BMP_pressure;BME280_temperature;BME280_humidity;BME280_pressure;Samples;Min_cycle;Max_cycle;Signal;HPM_P1;HPM_P2
2021/05/11 00:17:58;;;;;;;3.08;2.20;;;;;;;17.10;55.81;100132.97;5114596;27;1145125;-70
2021/05/11 00:20:27;;;;;;;2.47;1.95;;;;;;;17.11;55.79;100132.59;5111718;28;20036;-70
2021/05/11 00:22:52;;;;;;;2.38;1.95;;;;;;;17.15;56.15;100130.56;5109968;28;20100;-71
2021/05/11 00:25:19;;;;;;;2.42;2.25;;;;;;;17.18;55.95;100132.53;5109732;28;20533;-71
2021/05/11 00:27:46;;;;;;;2.50;2.30;;;;;;;17.24;55.32;100130.91;5109880;28;20089;-69
2021/05/11 00:30:13;;;;;;;3.65;2.30;;;;;;;17.20;55.59;100124.47;5109749;28;20020;-71
2021/05/11 00:32:39;;;;;;;2.17;1.98;;;;;;;17.22;55.87;100122.06;5109937;28;20030;-70
2021/05/11 00:35:06;;;;;;;2.70;2.50;;;;;;;17.21;55.47;100119.69;5109659;28;20034;-71
2021/05/11 00:37:36;;;;;;;5.50;2.30;;;;;;;17.33;54.80;100121.22;5109604;28;20123;-69
2021/05/11 00:40:07;;;;;;;2.72;1.92;;;;;;;17.24;55.21;100119.66;5110797;28;20416;-70
2021/05/11 00:42:33;;;;;;;2.67;2.08;;;;;;;17.21;55.39;100119.69;5109607;28;20036;-68
2021/05/11 00:44:59;;;;;;;3.83;2.40;;;;;;;17.19;55.04;100111.63;5109306;28;20540;-68
2021/05/11 00:47:24;;;;;;;3.45;2.95;;;;;;;17.34;54.34;100106.75;5109027;28;20115;-69
2021/05/11 00:49:50;;;;;;;2.50;2.15;;;;;;;17.28;54.25;100103.56;5109298;28;20049;-67
2021/05/11 00:52:16;;;;;;;2.70;2.22;;;;;;;17.23;54.76;100098.38;5109007;28;20035;-68
2021/05/11 00:54:41;;;;;;;2.15;1.92;;;;;;;17.25;53.96;100098.75;5109138;28;20496;-68
2021/05/11 00:57:08;;;;;;;3.40;2.20;;;;;;;17.22;54.30;100093.16;5108992;28;20098;-69
2021/05/11 00:59:33;;;;;;;2.33;1.80;;;;;;;17.23;54.20;100087.13;5108939;28;20028;-68
2021/05/11 01:02:03;;;;;;;1.90;1.80;;;;;;;17.20;54.85;100084.31;5108925;28;20374;-69
2021/05/11 01:04:29;;;;;;;3.45;2.42;;;;;;;17.31;53.71;100079.47;5108753;28;20497;-69
2021/05/11 01:06:55;;;;;;;3.33;2.33;;;;;;;17.33;53.84;100076.22;5108873;28;20081;-69
2021/05/11 01:09:22;;;;;;;2.28;2.00;;;;;;;17.38;54.02;100075.81;5109774;28;20077;-69
2021/05/11 01:11:49;;;;;;;2.67;2.15;;;;;;;17.29;54.04;100076.25;5108841;28;20036;-68
2021/05/11 01:14:15;;;;;;;2.45;2.25;;;;;;;17.23;54.06;100056.19;5108608;28;20482;-68
2021/05/11 01:16:41;;;;;;;2.30;2.10;;;;;;;17.48;53.48;100072.13;5108691;28;20031;-69
2021/05/11 01:21:49;;;;;;;2.25;2.08;;;;;;;17.47;53.77;100065.69;5109797;28;20032;-68
2021/05/11 01:24:26;;;;;;;3.63;1.75;;;;;;;17.43;54.70;100052.88;5109982;28;20039;-70
2021/05/11 01:48:48;;;;;;;2.60;2.40;;;;;;;17.08;55.75;100053.88;5075564;28;20047;-68
2021/05/11 01:51:35;;;;;;;2.65;2.35;;;;;;;17.09;56.41;100050.66;5094280;28;20081;-68
2021/05/11 01:54:48;;;;;;;3.33;2.35;;;;;;;17.19;56.58;100055.41;5094390;28;20055;-68
2021/05/11 02:22:36;;;;;;;1.95;1.73;;;;;;;17.15;53.16;100020.91;5105655;28;20130;-67
2021/05/11 02:24:10;;;;;;;3.80;1.70;;;;;;;17.12;52.06;100026.56;5012735;28;20046;-68
2021/05/11 02:26:36;;;;;;;2.20;1.65;;;;;;;17.14;51.74;100032.56;5078250;28;20039;-67
2021/05/11 02:29:02;;;;;;;1.33;1.23;;;;;;;17.12;51.99;100015.31;5096918;28;20396;-67
2021/05/11 02:31:27;;;;;;;1.55;1.40;;;;;;;17.18;51.60;100022.88;5096738;28;20084;-71
2021/05/11 02:33:53;;;;;;;3.13;1.73;;;;;;;17.13;51.99;100016.91;5096780;28;20034;-67
2021/05/11 02:36:18;;;;;;;1.42;1.33;;;;;;;17.11;52.29;100025.75;5096674;28;20373;-67
2021/05/11 02:38:44;;;;;;;2.88;1.50;;;;;;;17.15;52.00;100014.47;5096220;28;20032;-67
2021/05/11 02:41:10;;;;;;;2.58;1.52;;;;;;;17.13;52.25;100012.09;5096030;28;20111;-68
2021/05/11 02:43:38;;;;;;;1.88;1.77;;;;;;;17.15;51.15;100012.50;5082425;28;20043;-70
2021/05/11 02:46:04;;;;;;;15.15;10.65;;;;;;;17.21;50.97;100018.47;5096609;28;20031;-66
2021/05/11 02:48:30;;;;;;;37.88;25.88;;;;;;;17.22;50.87;100015.25;5096587;28;20378;-68
2021/05/11 02:50:56;;;;;;;22.52;17.58;;;;;;;17.11;51.93;100013.72;5096403;28;20024;-67
2021/05/11 02:53:21;;;;;;;14.63;11.38;;;;;;;17.11;51.31;100006.09;5096515;28;20042;-67
2021/05/11 02:55:47;;;;;;;9.27;8.30;;;;;;;17.12;51.85;99998.44;5096155;28;20028;-67
2021/05/11 02:58:13;;;;;;;4.97;4.47;;;;;;;17.10;51.06;100007.31;5096334;28;20024;-66
2021/05/11 03:00:41;;;;;;;4.47;4.13;;;;;;;17.04;50.48;100003.28;5096312;28;20019;-66
2021/05/11 03:03:07;;;;;;;3.58;3.17;;;;;;;17.01;50.42;100001.31;5096630;28;20089;-69
2021/05/11 03:05:33;;;;;;;2.22;2.00;;;;;;;17.03;50.02;99996.09;5096551;28;20027;-70
2021/05/11 03:07:58;;;;;;;2.13;1.70;;;;;;;16.99;49.70;100004.56;5096350;28;20031;-70
2021/05/11 03:10:27;;;;;;;1.58;1.48;;;;;;;16.99;49.39;100003.72;5096486;28;20020;-70
2021/05/11 03:12:52;;;;;;;1.80;1.70;;;;;;;16.98;49.59;100013.38;5096311;28;20030;-70
2021/05/11 03:15:18;;;;;;;2.33;1.63;;;;;;;16.93;49.76;99999.75;5096485;28;20024;-70
2021/05/11 03:17:43;;;;;;;1.65;1.45;;;;;;;16.93;49.89;100008.97;5092407;28;20135;-71
2021/05/11 03:20:11;;;;;;;4.60;1.83;;;;;;;16.85;50.42;99996.19;5092973;28;20486;-66
2021/05/11 03:22:37;;;;;;;2.63;2.08;;;;;;;16.93;49.80;100008.19;5093627;28;20496;-67
2021/05/11 03:25:04;;;;;;;3.20;2.90;;;;;;;16.89;50.21;100013.06;5092548;28;20028;-69
2021/05/11 03:27:29;;;;;;;5.32;3.38;;;;;;;16.87;51.29;100007.03;5092806;28;20039;-70
2021/05/11 03:29:55;;;;;;;3.45;3.03;;;;;;;16.82;51.09;100002.63;5092718;28;20028;-70
2021/05/11 03:32:21;;;;;;;3.80;3.50;;;;;;;16.74;50.61;100006.69;5092367;28;20386;-68
2021/05/11 03:34:46;;;;;;;5.68;3.63;;;;;;;16.86;50.93;100013.84;5091896;28;20036;-67
2021/05/11 03:37:12;;;;;;;4.18;3.72;;;;;;;16.80;51.23;100012.69;5092083;28;20028;-66
2021/05/11 03:39:39;;;;;;;7.32;2.55;;;;;;;16.80;51.22;100012.69;5092234;28;20028;-67
2021/05/11 03:42:21;;;;;;;3.65;2.05;;;;;;;16.71;51.41;100019.53;5092083;28;20032;-67
2021/05/11 03:44:50;;;;;;;2.15;1.95;;;;;;;16.61;51.68;100013.94;5091970;28;20103;-68
2021/05/11 03:47:19;;;;;;;2.10;1.90;;;;;;;16.58;53.27;100015.56;5093090;28;20028;-67
2021/05/11 03:49:45;;;;;;;1.60;1.45;;;;;;;16.49;53.32;100012.38;5091782;28;20032;-69
2021/05/11 03:52:11;;;;;;;3.15;2.10;;;;;;;16.44;54.13;100015.63;5091673;28;20035;-68
2021/05/11 03:54:37;;;;;;;2.88;2.13;;;;;;;16.39;53.91;100011.22;5091914;28;20055;-68
2021/05/11 03:57:04;;;;;;;7.85;2.20;;;;;;;16.34;53.63;100016.44;5091995;28;20472;-68
2021/05/11 03:59:32;;;;;;;6.43;3.40;;;;;;;16.35;53.37;100032.09;5093101;28;20051;-66
2021/05/11 04:01:58;;;;;;;5.88;3.78;;;;;;;16.44;52.20;100033.25;5092054;28;20431;-68
2021/05/11 04:04:24;;;;;;;6.95;4.20;;;;;;;16.44;51.20;100026.84;5091696;28;20028;-67
2021/05/11 04:06:52;;;;;;;5.22;3.92;;;;;;;16.50;51.03;100030.84;5092007;28;20063;-69
2021/05/11 04:17:07;;;;;;;2.72;1.60;;;;;;;17.43;49.48;100038.81;5095087;28;20378;-68
2021/05/11 04:19:35;;;;;;;5.13;2.00;;;;;;;17.96;48.60;100046.81;5094921;28;20039;-68
2021/05/11 04:22:01;;;;;;;4.97;1.48;;;;;;;18.43;47.31;100046.31;5095330;28;20395;-68
2021/05/11 04:24:28;;;;;;;2.63;1.48;;;;;;;18.86;46.89;100062.78;5094986;28;20092;-67
2021/05/11 04:26:54;;;;;;;6.43;1.60;;;;;;;19.26;44.91;100058.97;5095164;28;20024;-68
2021/05/11 04:29:19;;;;;;;1.83;1.33;;;;;;;19.62;43.83;100058.47;5094895;28;20362;-68
2021/05/11 04:31:45;;;;;;;2.70;1.55;;;;;;;20.02;43.68;100053.75;5095085;28;20126;-67
2021/05/11 04:34:11;;;;;;;1.70;1.40;;;;;;;20.33;42.89;100060.03;5094828;28;20072;-68
2021/05/11 04:36:40;;;;;;;2.03;1.38;;;;;;;20.61;42.16;100055.91;5094719;28;20074;-69
2021/05/11 04:39:06;;;;;;;2.40;1.35;;;;;;;20.90;41.60;100053.28;5095290;28;20108;-70
2021/05/11 04:41:31;;;;;;;2.00;1.58;;;;;;;21.30;40.98;100049.59;5095045;28;20055;-69
2021/05/11 04:44:04;;;;;;;3.03;1.20;;;;;;;21.76;39.68;100054.16;5095078;28;20429;-69
2021/05/11 04:46:57;;;;;;;2.47;1.50;;;;;;;22.17;39.00;100044.22;5094884;28;20493;-68
2021/05/11 04:49:20;;;;;;;7.38;1.80;;;;;;;22.64;38.28;100053.03;5112295;28;20032;-69
2021/05/11 04:51:46;;;;;;;5.43;1.63;;;;;;;22.51;39.66;100051.41;5094805;28;20039;-69
2021/05/11 04:54:12;;;;;;;5.63;1.85;;;;;;;22.59;39.79;100053.59;5078027;28;20385;-69
2021/05/11 04:56:38;;;;;;;5.15;1.42;;;;;;;22.86;39.19;100053.22;5094867;28;20435;-69
2021/05/11 04:59:03;;;;;;;5.13;1.92;;;;;;;23.31;38.18;100049.44;5094901;28;20031;-70
2021/05/11 05:01:29;;;;;;;5.95;1.95;;;;;;;23.85;37.34;100061.94;5094672;28;20069;-69
2021/05/11 05:03:57;;;;;;;3.63;1.67;;;;;;;24.13;37.01;100063.00;5097281;28;20031;-68
2021/05/11 05:06:23;;;;;;;1.30;1.20;;;;;;;24.14;36.74;100061.75;5098304;28;20375;-70
2021/05/11 05:08:48;;;;;;;3.30;1.73;;;;;;;23.55;38.33;100049.91;5098319;28;20168;-69
2021/05/11 05:11:17;;;;;;;2.40;1.55;;;;;;;23.88;37.17;100050.44;5098175;28;20035;-70
2021/05/11 05:13:42;;;;;;;3.92;1.45;;;;;;;24.20;36.13;100054.25;5098290;28;20044;-69
2021/05/11 05:16:08;;;;;;;1.63;1.52;;;;;;;24.43;36.17;100051.00;5098199;28;20575;-69
2021/05/11 05:18:33;;;;;;;1.98;1.50;;;;;;;24.47;35.23;100039.50;5097942;28;20134;-70
2021/05/11 05:20:59;;;;;;;1.55;1.38;;;;;;;24.92;35.07;100046.75;5098265;28;20032;-69
2021/05/11 05:23:31;;;;;;;3.72;1.65;;;;;;;25.01;34.87;100039.06;5098122;28;20028;-70
2021/05/11 05:26:08;;;;;;;4.10;3.78;;;;;;;25.42;33.97;100039.94;5098214;28;20024;-70
2021/05/11 05:28:37;;;;;;;6.63;3.85;;;;;;;25.77;33.74;100043.38;5097943;28;20028;-69
2021/05/11 05:31:03;;;;;;;3.70;3.17;;;;;;;26.13;32.71;100039.03;5098000;28;20034;-70
2021/05/11 05:33:33;;;;;;;5.85;4.10;;;;;;;26.38;32.14;100040.78;5097743;28;20043;-70
2021/05/11 05:35:59;;;;;;;3.92;3.63;;;;;;;26.54;32.14;100051.91;5080917;28;20023;-70
2021/05/11 05:38:27;;;;;;;5.30;3.58;;;;;;;26.44;33.35;100056.03;5097849;28;20050;-69
2021/05/11 05:40:58;;;;;;;6.82;4.13;;;;;;;26.80;32.65;100048.72;5097891;28;20024;-70
2021/05/11 05:43:24;;;;;;;6.53;3.38;;;;;;;27.09;32.10;100048.97;5097744;28;20385;-69
2021/05/11 05:45:52;;;;;;;6.63;3.10;;;;;;;26.28;33.06;100047.75;5097821;28;20031;-70
2021/05/11 05:48:18;;;;;;;9.38;3.58;;;;;;;26.69;33.68;100048.41;5097805;28;20051;-73
2021/05/11 05:50:44;;;;;;;7.28;3.65;;;;;;;27.00;32.67;100039.59;5080746;28;20111;-68
2021/05/11 05:53:14;;;;;;;5.50;3.38;;;;;;;26.35;33.99;100042.50;5097668;28;20420;-69
2021/05/11 05:55:41;;;;;;;8.00;3.72;;;;;;;26.59;35.03;100039.84;5097376;28;20082;-68
2021/05/11 05:58:07;;;;;;;10.05;4.30;;;;;;;26.18;35.60;100046.16;5097518;28;20028;-69
2021/05/11 06:00:33;;;;;;;8.32;3.92;;;;;;;26.90;34.19;100051.06;5097282;28;20031;-69
2021/05/11 06:03:06;;;;;;;5.30;3.70;;;;;;;26.64;34.25;100052.69;5097360;28;20036;-70
2021/05/11 06:05:33;;;;;;;6.72;4.05;;;;;;;26.91;33.30;100043.28;5115297;28;20031;-69
2021/05/11 06:07:59;;;;;;;5.30;3.65;;;;;;;26.80;32.85;100035.22;5097262;28;20027;-68
2021/05/11 06:10:29;;;;;;;6.65;3.60;;;;;;;26.73;33.20;100037.59;5097159;28;20026;-69
2021/05/11 06:13:16;;;;;;;5.30;3.13;;;;;;;26.93;32.08;100032.19;5097153;28;20466;-69
2021/05/11 06:18:25;;;;;;;8.48;5.10;;;;;;;26.77;33.39;100026.81;5115071;28;20566;-69
2021/05/11 06:20:51;;;;;;;12.27;6.05;;;;;;;26.10;34.67;100023.66;5096867;28;20126;-68
2021/05/11 06:23:18;;;;;;;7.18;6.18;;;;;;;26.20;34.90;100029.34;5096911;28;20027;-69
2021/05/11 06:25:45;;;;;;;6.32;4.00;;;;;;;25.82;33.23;100019.16;5096551;28;20029;-68
2021/05/11 06:28:12;;;;;;;3.38;2.40;;;;;;;26.04;31.42;100022.69;5096963;28;20024;-69
2021/05/11 06:30:38;;;;;;;3.55;2.58;;;;;;;26.98;30.80;100020.13;5096638;28;20026;-68
2021/05/11 06:33:08;;;;;;;2.65;2.42;;;;;;;26.76;31.26;100023.19;5096761;28;20370;-70
2021/05/11 06:35:35;;;;;;;3.58;2.42;;;;;;;26.99;30.13;100024.53;5096579;28;20169;-68
2021/05/11 06:38:01;;;;;;;3.78;2.30;;;;;;;27.39;30.10;100026.34;5080213;28;20040;-69
2021/05/11 06:40:28;;;;;;;3.75;2.28;;;;;;;28.35;28.54;100032.16;5096810;28;20023;-69
2021/05/11 06:42:55;;;;;;;2.60;2.40;;;;;;;28.79;27.46;100031.44;5096680;28;20035;-69
2021/05/11 06:53:04;;;;;;;1.70;1.60;;;;;;;30.39;23.52;100027.91;5114660;28;20474;-68
2021/05/11 06:55:32;;;;;;;2.55;1.83;;;;;;;30.53;23.68;100018.44;5096197;28;20031;-69
2021/05/11 06:58:03;;;;;;;7.35;1.70;;;;;;;30.81;23.31;100023.69;5096121;28;20029;-70
2021/05/11 07:00:29;;;;;;;3.05;1.52;;;;;;;31.29;23.02;100028.84;5096114;28;20023;-69
2021/05/11 07:02:54;;;;;;;2.90;2.13;;;;;;;31.37;22.18;100034.91;5096140;28;20030;-68
2021/05/11 07:05:20;;;;;;;4.70;2.30;;;;;;;30.88;22.52;100033.94;5096056;28;20035;-72
2021/05/11 07:07:55;;;;;;;2.13;1.85;;;;;;;31.57;22.15;100031.91;5095902;28;20030;-69
2021/05/11 07:10:29;;;;;;;4.00;3.60;;;;;;;31.12;22.28;100037.31;5113937;28;20024;-68
2021/05/11 07:15:36;;;;;;;5.90;2.50;;;;;;;30.52;23.27;100036.94;5114062;28;20525;-69
2021/05/11 07:18:17;;;;;;;2.78;2.28;;;;;;;30.44;23.46;100030.06;5095577;28;20142;-69
2021/05/11 07:20:45;;;;;;;4.30;2.40;;;;;;;30.74;23.72;100033.56;5095818;28;20564;-69
2021/05/11 07:23:16;;;;;;;3.67;2.15;;;;;;;30.44;23.48;100040.75;5095895;28;20061;-69
2021/05/11 07:31:07;;;;;;;3.38;1.60;;;;;;;30.05;24.06;100037.38;5114327;28;20043;-71
2021/05/11 07:33:54;;;;;;;1.70;1.60;;;;;;;29.84;24.12;100031.63;5095586;28;20027;-68
2021/05/11 07:36:21;;;;;;;2.20;1.80;;;;;;;29.29;24.92;100022.94;5112740;28;20035;-72
2021/05/11 07:38:47;;;;;;;4.45;1.60;;;;;;;28.73;25.83;100034.19;5095777;28;20122;-71
2021/05/11 07:41:14;;;;;;;2.28;2.08;;;;;;;28.65;25.97;100028.03;5095520;28;20027;-68
2021/05/11 07:43:42;;;;;;;3.20;1.95;;;;;;;29.20;25.36;100026.72;5095424;28;20028;-70
2021/05/11 08:15:56;;;;;;;3.15;1.90;;;;;;;30.89;23.03;100033.41;5061098;28;20473;-69
2021/05/11 08:27:27;;;;;;;7.15;3.22;;;;;;;31.41;24.65;100035.47;5113043;28;20046;-69
2021/05/11 08:29:01;;;;;;;3.25;2.60;;;;;;;30.70;25.84;100023.59;5113008;28;20128;-69
2021/05/11 08:31:29;;;;;;;2.40;2.20;;;;;;;30.33;26.43;100021.31;5094689;28;20082;-69
2021/05/11 08:33:55;;;;;;;1.90;1.80;;;;;;;30.80;25.51;100018.47;5094851;28;20042;-69
2021/05/11 08:36:20;;;;;;;2.95;1.70;;;;;;;30.58;25.47;100025.53;5094691;28;20019;-69
2021/05/11 08:38:46;;;;;;;2.90;1.55;;;;;;;31.00;25.12;100024.13;5097040;28;20043;-69
2021/05/11 08:41:11;;;;;;;4.13;1.92;;;;;;;30.39;25.42;100010.69;5098977;28;20031;-69
2021/05/11 08:43:44;;;;;;;4.57;2.00;;;;;;;30.76;26.00;100025.22;5098580;28;20035;-70
2021/05/11 08:46:11;;;;;;;1.98;1.50;;;;;;;31.44;24.79;100008.59;5098792;28;20466;-69
2021/05/11 08:48:39;;;;;;;2.00;1.75;;;;;;;31.18;24.96;100028.72;5098581;28;20024;-69
2021/05/11 09:27:09;;;;;;;2.65;1.95;;;;;;;31.12;24.59;99985.59;5116290;28;20944;-70
2021/05/11 09:56:54;;;;;;;5.65;2.63;;;;;;;31.59;22.53;99957.44;5115890;28;20103;-70
2021/05/11 10:00:08;;;;;;;2.72;1.75;;;;;;;31.38;22.13;99951.06;5097693;28;20548;-70
2021/05/11 10:39:59;;;;;;;1.88;1.77;;;;;;;31.00;24.30;99903.47;5115094;28;20034;-70
2021/05/11 10:43:43;;;;;;;3.70;1.90;;;;;;;31.00;24.88;99903.47;5092260;28;20193;-70
2021/05/11 10:48:29;;;;;;;2.85;1.58;;;;;;;31.90;23.68;99915.50;5114825;28;20040;-71
2021/05/11 10:50:59;;;;;;;2.95;1.77;;;;;;;31.24;23.83;99880.91;5096381;28;20031;-70
2021/05/11 10:53:40;;;;;;;4.55;1.88;;;;;;;31.81;23.77;99907.91;5096319;28;20454;-70
2021/05/11 10:56:44;;;;;;;2.70;1.63;;;;;;;31.67;23.41;99909.63;5096207;28;20020;-70
2021/05/11 10:59:39;;;;;;;3.10;1.63;;;;;;;29.95;26.19;99901.94;5113651;28;20027;-69
2021/05/11 11:02:38;;;;;;;1.98;1.65;;;;;;;31.15;25.00;99909.84;5095312;28;20024;-70
2021/05/11 11:05:05;;;;;;;5.60;1.90;;;;;;;30.25;25.12;99906.19;5096159;28;20027;-70
2021/05/11 11:07:34;;;;;;;4.13;1.80;;;;;;;30.76;23.37;99907.47;5096174;28;20028;-70
2021/05/11 11:10:01;;;;;;;3.28;2.10;;;;;;;30.33;23.45;99903.66;5096452;28;20085;-69
2021/05/11 11:12:40;;;;;;;1.55;1.40;;;;;;;30.54;23.94;99901.50;5095931;28;20114;-69
2021/05/11 11:15:15;;;;;;;1.23;1.13;;;;;;;30.33;23.31;99912.28;5096377;28;20027;-70
2021/05/11 11:17:43;;;;;;;7.38;3.13;;;;;;;30.97;23.05;99905.28;5076193;28;20463;-70
2021/05/11 11:20:13;;;;;;;4.50;2.00;;;;;;;31.13;23.10;99900.97;5092873;28;20346;-70
2021/05/11 11:25:40;;;;;;;4.05;1.45;;;;;;;31.18;23.42;99903.09;5093959;28;20047;-70
2021/05/11 11:28:06;;;;;;;4.57;1.65;;;;;;;31.38;23.48;99889.91;5092387;28;20032;-72
2021/05/11 11:30:32;;;;;;;1.88;1.42;;;;;;;31.08;23.54;99898.06;5092519;28;20485;-70
2021/05/11 11:33:01;;;;;;;2.85;2.03;;;;;;;30.72;24.00;99895.44;5092368;28;20085;-70
2021/05/11 11:35:32;;;;;;;3.30;2.35;;;;;;;30.12;25.15;99899.28;5092225;28;20036;-70
2021/05/11 11:37:57;;;;;;;5.70;1.95;;;;;;;30.17;25.57;99902.19;5092265;28;20566;-70
2021/05/11 11:59:14;;;;;;;2.60;1.63;;;;;;;29.59;27.17;99866.81;5054833;28;20412;-68
2021/05/11 12:02:03;;;;;;;4.60;1.55;;;;;;;28.71;28.67;99882.97;5106270;28;20028;-69
2021/05/11 12:04:32;;;;;;;3.20;1.70;;;;;;;29.25;28.49;99879.91;5109066;28;20031;-68
2021/05/11 12:07:05;;;;;;;1.65;1.50;;;;;;;29.47;28.60;99880.22;5092414;28;20068;-69
2021/05/11 12:09:35;;;;;;;4.88;1.88;;;;;;;29.56;28.58;99882.16;5107432;28;20031;-69
2021/05/11 12:15:38;;;;;;;4.13;1.83;;;;;;;29.33;28.12;99863.06;5100962;28;20420;-69
2021/05/11 12:18:41;;;;;;;2.40;2.00;;;;;;;28.93;28.85;99864.56;5103885;28;20040;-69
2021/05/11 12:24:45;;;;;;;4.55;1.60;;;;;;;28.84;28.93;99871.19;5110740;28;20051;-69
2021/05/11 12:27:22;;;;;;;3.63;1.60;;;;;;;28.53;29.15;99876.66;5108532;28;20100;-69
2021/05/11 12:30:06;;;;;;;2.95;2.25;;;;;;;28.29;29.82;99873.91;5109983;28;20533;-69
2021/05/11 12:32:36;;;;;;;3.30;1.50;;;;;;;27.77;30.81;99874.22;5102855;28;20040;-69
2021/05/11 12:35:17;;;;;;;7.72;2.50;;;;;;;27.67;30.88;99875.53;5108593;28;20027;-71
2021/05/11 12:37:55;;;;;;;4.05;1.30;;;;;;;27.49;30.42;99859.31;5108605;28;20020;-69
2021/05/11 12:43:37;;;;;;;3.05;1.60;;;;;;;27.21;30.01;99852.22;5109285;28;20036;-70
2021/05/11 12:46:14;;;;;;;1.30;1.20;;;;;;;27.35;30.11;99854.34;5083155;28;20063;-69
2021/05/11 12:48:56;;;;;;;2.72;1.85;;;;;;;27.33;30.01;99856.91;5108850;28;20116;-71
2021/05/11 12:51:40;;;;;;;1.45;1.33;;;;;;;27.22;30.22;99848.06;5108327;28;20023;-70
2021/05/11 13:03:20;;;;;;;2.17;1.20;;;;;;;27.06;30.24;99844.34;5130397;28;20099;-72
2021/05/11 13:17:17;;;;;;;4.10;1.75;;;;;;;27.26;30.88;99880.88;5115827;28;20562;-69
2021/05/11 13:25:54;;;;;;;7.20;2.05;;;;;;;26.60;33.50;99875.16;5112657;28;20034;-69
2021/05/11 13:29:06;;;;;;;3.88;1.40;;;;;;;26.36;33.94;99883.59;5097562;28;20027;-68
2021/05/11 13:31:40;;;;;;;6.05;1.23;;;;;;;26.59;34.38;99880.09;5101200;28;20039;-68
2021/05/11 13:34:13;;;;;;;2.83;1.42;;;;;;;26.56;33.08;99892.44;5096216;28;20084;-68
2021/05/11 13:36:44;;;;;;;15.13;1.75;;;;;;;26.38;32.17;99893.25;5097070;28;20059;-67
2021/05/11 13:39:22;;;;;;;2.00;1.20;;;;;;;26.36;32.19;99895.00;5113225;28;20079;-68
2021/05/11 13:41:54;;;;;;;3.92;1.38;;;;;;;26.42;32.52;99901.69;5097179;28;20122;-68
2021/05/11 13:45:09;;;;;;;4.30;1.27;;;;;;;26.35;31.52;99901.97;5090606;28;20054;-67
2021/05/11 13:48:06;;;;;;;2.60;1.38;;;;;;;26.19;31.05;99897.41;5102725;28;20047;-68
2021/05/11 13:53:08;;;;;;;3.30;1.17;;;;;;;25.88;31.15;99916.75;5039555;22;20058;-67
2021/05/11 13:56:06;;;;;;;1.88;1.33;;;;;;;25.84;32.37;99905.53;5014934;28;20029;-68
2021/05/11 14:03:48;;;;;;;1.77;1.27;;;;;;;25.48;32.98;99917.63;5014790;28;20126;-67
2021/05/11 14:06:14;;;;;;;2.40;1.33;;;;;;;25.74;32.69;99912.44;5013439;28;20053;-67
2021/05/11 14:08:40;;;;;;;1.67;1.15;;;;;;;25.60;31.97;99902.47;5013408;28;20100;-66
2021/05/11 14:11:05;;;;;;;1.83;1.50;;;;;;;25.01;38.03;99891.06;5013643;28;20432;-67
2021/05/11 14:13:31;;;;;;;2.55;1.35;;;;;;;25.44;38.24;99895.00;5013343;28;20360;-67
2021/05/11 14:15:57;;;;;;;3.55;1.60;;;;;;;25.34;38.47;99907.63;5013287;28;20076;-68
2021/05/11 14:18:22;;;;;;;3.08;1.80;;;;;;;25.39;38.11;99909.84;5012596;28;20383;-67
2021/05/11 14:20:48;;;;;;;3.03;2.03;;;;;;;25.47;39.98;99910.38;5013096;28;20037;-68
2021/05/11 14:23:13;;;;;;;7.28;2.40;;;;;;;25.11;46.07;99906.16;5013264;28;20380;-68
2021/05/11 14:25:39;;;;;;;5.70;2.50;;;;;;;24.47;49.82;99912.31;5012787;28;20022;-67
2021/05/11 14:28:04;;;;;;;10.10;2.40;;;;;;;23.87;52.63;99923.06;5012404;28;20050;-69
2021/05/11 14:30:30;;;;;;;7.80;3.03;;;;;;;23.59;54.34;99899.25;5013181;28;20022;-68
2021/05/11 14:32:58;;;;;;;6.70;3.05;;;;;;;23.38;55.49;99915.78;5012710;28;20033;-71
2021/05/11 14:35:23;;;;;;;5.90;2.55;;;;;;;22.95;55.85;99914.34;5012993;28;20112;-72
2021/05/11 14:37:51;;;;;;;6.78;3.65;;;;;;;23.25;55.16;99912.19;5013310;28;20125;-70
2021/05/11 14:40:17;;;;;;;6.28;2.80;;;;;;;23.46;55.57;99916.34;5013497;28;20431;-72
2021/05/11 14:42:43;;;;;;;6.07;2.85;;;;;;;23.70;55.22;99908.22;5012688;28;20065;-71
2021/05/11 14:45:10;;;;;;;8.73;3.08;;;;;;;23.69;55.42;99898.91;5012648;28;20022;-71
2021/05/11 14:47:36;;;;;;;4.65;2.45;;;;;;;23.42;55.03;99893.75;5014021;28;20030;-70
2021/05/11 14:50:06;;;;;;;5.35;2.95;;;;;;;23.30;54.92;99905.94;5012541;28;20113;-69
2021/05/11 14:52:32;;;;;;;5.18;2.17;;;;;;;23.43;53.40;99901.00;5012405;28;20491;-70
2021/05/11 14:54:59;;;;;;;2.25;1.70;;;;;;;23.67;50.91;99892.13;5013363;28;20018;-72
2021/05/11 14:57:24;;;;;;;3.53;1.80;;;;;;;24.03;47.16;99900.16;5012673;28;20030;-69
2021/05/11 14:59:50;;;;;;;2.60;1.73;;;;;;;23.98;47.72;99895.06;5012394;28;20053;-70
2021/05/11 15:02:15;;;;;;;10.20;1.88;;;;;;;23.96;43.46;99909.72;5012511;28;20080;-69
2021/05/11 15:04:43;;;;;;;3.47;1.98;;;;;;;24.18;43.57;99925.97;5012582;28;20112;-69
2021/05/11 15:07:08;;;;;;;6.20;2.15;;;;;;;23.71;46.46;99926.88;5013950;28;20033;-69
2021/05/11 15:09:34;;;;;;;3.15;2.20;;;;;;;23.28;48.14;99934.00;5012544;28;20380;-67
2021/05/11 15:11:59;;;;;;;3.83;2.30;;;;;;;22.97;48.59;99931.72;5012325;28;20030;-68
2021/05/11 15:14:25;;;;;;;3.90;1.98;;;;;;;22.71;50.00;99924.44;5012376;28;20029;-69
2021/05/11 15:16:58;;;;;;;4.20;2.00;;;;;;;22.36;51.72;99914.94;5012323;28;20036;-70
2021/05/11 15:19:23;;;;;;;2.42;2.00;;;;;;;22.48;51.20;99915.00;5012335;28;20017;-67
2021/05/11 15:21:49;;;;;;;3.78;2.95;;;;;;;22.29;53.28;99913.13;5012304;28;20383;-70
2021/05/11 15:24:15;;;;;;;4.32;2.05;;;;;;;21.96;57.19;99915.25;5012079;28;20022;-68
2021/05/11 15:26:40;;;;;;;6.50;3.55;;;;;;;21.80;56.52;99923.81;5012200;28;20431;-68
2021/05/11 15:29:06;;;;;;;6.32;3.17;;;;;;;21.30;60.37;99897.59;5012113;28;20117;-67
2021/05/11 15:31:32;;;;;;;10.00;2.25;;;;;;;20.83;62.23;99883.78;5012823;28;20029;-68
2021/05/11 15:33:58;;;;;;;2.67;2.35;;;;;;;20.64;61.58;99870.50;5012673;28;20056;-70
2021/05/11 15:36:24;;;;;;;7.63;2.63;;;;;;;20.50;61.01;99862.34;5012710;28;20379;-69
2021/05/11 15:38:50;;;;;;;3.17;2.25;;;;;;;20.52;60.16;99866.31;5012917;28;20029;-69
2021/05/11 15:41:15;;;;;;;7.60;2.95;;;;;;;20.68;59.58;99857.09;5012633;28;20477;-69
2021/05/11 15:43:41;;;;;;;8.98;3.88;;;;;;;20.56;59.62;99844.44;5012724;28;20490;-68
2021/05/11 15:46:07;;;;;;;3.58;2.28;;;;;;;20.51;59.91;99838.53;5012646;28;20388;-69
2021/05/11 15:48:32;;;;;;;8.10;3.08;;;;;;;20.53;59.70;99816.25;5012643;28;20455;-69
2021/05/11 15:50:59;;;;;;;8.05;2.42;;;;;;;20.51;60.05;99816.69;5012484;28;20060;-69
2021/05/11 15:53:24;;;;;;;3.55;2.30;;;;;;;20.65;59.83;99790.13;5012932;28;20025;-69
2021/05/11 15:55:50;;;;;;;4.65;2.20;;;;;;;20.60;60.25;99754.69;5011825;28;20022;-69
2021/05/11 15:58:17;;;;;;;6.57;2.58;;;;;;;20.66;59.62;99743.66;5012594;28;20034;-68
2021/05/11 16:00:54;;;;;;;7.57;2.40;;;;;;;20.70;59.56;99758.50;5013614;28;20022;-69
2021/05/11 16:03:20;;;;;;;4.55;2.10;;;;;;;21.03;59.14;99741.47;5011963;28;20021;-69
2021/05/11 16:05:47;;;;;;;3.50;2.40;;;;;;;21.19;58.74;99724.47;4995531;28;20180;-68
2021/05/11 16:08:16;;;;;;;4.38;2.30;;;;;;;21.36;57.55;99691.28;5012004;28;20033;-69
2021/05/11 16:10:43;;;;;;;4.50;2.10;;;;;;;21.80;56.61;99720.72;5012986;28;20529;-70
2021/05/11 16:13:09;;;;;;;4.95;2.38;;;;;;;22.08;56.00;99721.06;5011748;28;20073;-69
2021/05/11 16:15:35;;;;;;;8.57;2.50;;;;;;;22.44;55.04;99721.53;5011745;28;20022;-69
2021/05/11 16:18:03;;;;;;;5.72;2.88;;;;;;;22.63;54.71;99735.91;5011652;28;20034;-69
2021/05/11 16:20:29;;;;;;;7.45;2.45;;;;;;;22.72;54.66;99736.00;5011483;28;20061;-69
2021/05/11 16:22:57;;;;;;;7.43;3.35;;;;;;;22.81;54.10;99746.66;5011565;28;20146;-70
2021/05/11 16:25:23;;;;;;;10.80;5.97;;;;;;;22.73;54.20;99763.13;5011363;28;20025;-70
2021/05/11 16:27:49;;;;;;;6.60;5.13;;;;;;;22.66;53.67;99809.53;5012485;28;20030;-68
2021/05/11 16:30:18;;;;;;;3.80;2.35;;;;;;;22.70;53.38;99821.53;5011452;28;20030;-68
2021/05/11 16:32:47;;;;;;;7.15;2.72;;;;;;;22.53;53.57;99822.09;5011464;28;20105;-68
2021/05/11 16:35:14;;;;;;;7.20;2.55;;;;;;;22.47;54.15;99839.66;5012705;28;20025;-72
2021/05/11 16:37:40;;;;;;;9.95;2.88;;;;;;;22.32;54.38;99835.72;5011539;28;20105;-71
2021/05/11 16:40:07;;;;;;;5.72;2.65;;;;;;;22.29;54.89;99813.16;5011449;28;20447;-69